Bezoek ook deze websites:

Mijn andere website

Weerstation Noordbergum

Weerstation in Leuven


U vindt ons ook hier:

Weather Underground


Select another period ( hide this area )

Eenheden Periode Custom range Directly to
Metrisch Engels Beide
Dagelijkse Wekelijkse Maandelijkse Jaarlijkse
use both date-selectors for a custom range
previous Dag
With this date

WeatherUnderground graphs for this period ( click here )


Dagelijkse Samenvatting Zondag 26 januari 2020
Tijd Temp. ( °C ) Dew pt. ( °C ) Wind ( km/h ) van Windvlaag ( km/h ) Luchtdruk ( hPa ) Humid.( % ) Rainrate ( cm )
Hoog0,9 0,1 17,7 Zuiden ( 503/768 ) 24,1 1018,8 98 -
Gemiddeld0,4 -0,2 8,2 Zuiden #60/94 13,9 1017,0 96 -
Laag-0,4 -1,0 1,4   4,8 1015,5 94 -
Dagelijkse Tabular details for Zondag 26 januari 2020
Tijd Temp. ( °C ) Dew pt. ( °C ) Wind ( km/h ) van Windvlaag ( km/h ) Luchtdruk ( hPa ) Humid.( % ) Rainrate ( cm )
00:02 0,9 0,0 4,7 Zuiden 9,7 1018,8 94 -
00:07 0,9 0,0 4,7 Zuiden 11,3 1018,8 94 -
00:12 0,9 0,0 3,2 Zuiden 8,0 1018,5 94 -
00:17 0,9 0,0 11,1 Zuiden 11,3 1018,5 94 -
00:22 0,9 0,0 4,7 ZZW 6,4 1018,5 94 -
00:27 0,9 0,0 3,2 Zuiden 8,0 1018,5 94 -
00:32 0,9 0,0 9,7 Zuiden 14,5 1018,5 94 -
00:37 0,9 0,0 6,4 Zuiden 12,9 1018,2 94 -
00:42 0,9 0,0 6,4 ZZW 19,3 1018,2 94 -
00:47 0,9 0,0 13,0 Zuiden 12,9 1018,2 94 -
00:52 0,8 -0,1 7,9 Zuiden 9,7 1018,2 94 -
00:57 0,8 -0,1 4,7 Zuiden 8,0 1018,2 94 -
01:02 0,8 -0,1 4,7 Zuiden 8,0 1018,2 94 -
01:07 0,8 -0,1 6,4 ZZW 9,7 1018,2 94 -
01:12 0,8 0,1 9,7 Zuiden 16,1 1018,2 95 -
01:17 0,8 0,1 9,7 Zuiden 9,7 1018,2 95 -
01:22 0,8 0,1 4,7 ZZW 9,7 1017,8 95 -
01:27 0,8 0,1 3,2 ZZW 6,4 1017,8 95 -
01:32 0,8 0,1 3,2 Zuiden 6,4 1017,8 95 -
01:37 0,8 0,1 4,7 Zuiden 4,8 1017,8 95 -
01:42 0,7 0,0 6,4 Zuiden 6,4 1017,8 95 -
01:47 0,6 -0,1 3,2 Zuiden 4,8 1017,8 95 -
01:52 0,6 -0,1 1,4 ZZO 6,4 1017,8 95 -
01:57 0,7 0,0 6,4 Zuiden 9,7 1017,8 95 -
02:02 0,7 0,0 7,9 ZZW 11,3 1017,8 95 -
02:07 0,7 0,0 6,4 Zuiden 12,9 1017,8 95 -
02:12 0,7 0,0 7,9 Zuiden 11,3 1017,8 95 -
02:17 0,8 0,1 7,9 Zuiden 11,3 1017,5 95 -
02:22 0,8 0,1 7,9 ZZW 11,3 1017,5 95 -
02:27 0,8 0,1 9,7 Zuiden 14,5 1017,5 95 -
02:32 0,7 0,0 6,4 Zuiden 9,7 1017,5 95 -
02:37 0,6 -0,1 7,9 Zuiden 9,7 1017,5 95 -
02:42 0,3 -0,4 7,9 ZZW 9,7 1017,5 95 -
02:47 0,2 -0,5 7,9 Zuiden 12,9 1017,5 95 -
02:52 0,0 -0,7 6,4 ZZW 9,7 1017,5 95 -
02:57 -0,1 -0,8 6,4 Zuiden 9,7 1017,5 95 -
03:02 -0,2 -0,9 6,4 Zuiden 9,7 1017,5 95 -
03:07 -0,2 -0,9 4,7 ZZW 9,7 1017,5 95 -
03:12 -0,2 -0,9 4,7 ZZO 6,4 1017,5 95 -
03:17 -0,4 -1,0 9,7 Zuiden 11,3 1017,5 96 -
03:22 -0,3 -0,9 7,9 Zuiden 16,1 1017,2 96 -
03:27 -0,3 -0,9 11,1 Zuiden 16,1 1017,2 96 -
03:32 -0,3 -0,9 7,9 ZZW 19,3 1017,2 96 -
03:37 -0,3 -0,9 9,7 ZZO 16,1 1017,2 96 -
03:42 -0,3 -0,9 9,7 Zuiden 16,1 1017,2 96 -
03:47 -0,2 -0,8 6,4 Zuiden 16,1 1017,2 96 -
03:52 -0,2 -0,8 11,1 ZZO 19,3 1017,2 96 -
03:57 -0,2 -0,8 7,9 ZZW 14,5 1017,2 96 -
04:02 -0,2 -0,6 13,0 ZZW 16,1 1016,8 97 -
04:07 -0,2 -0,6 11,1 ZZW 14,5 1016,8 97 -
04:12 -0,1 -0,5 7,9 Zuiden 16,1 1016,8 97 -
04:17 -0,1 -0,5 7,9 ZZW 20,9 1016,8 97 -
04:22 0,0 -0,4 17,7 Zuiden 24,1 1016,8 97 -
04:27 0,1 -0,3 13,0 Zuiden 17,7 1016,5 97 -
04:32 0,1 -0,3 7,9 ZZO 19,3 1016,5 97 -
04:37 0,1 -0,3 13,0 Zuiden 14,5 1016,5 97 -
04:42 0,2 -0,2 4,7 Zuiden 17,7 1016,5 97 -
04:47 0,2 -0,2 7,9 Zuiden 14,5 1016,5 97 -
04:52 0,2 -0,2 6,4 Zuiden 11,3 1016,5 97 -
04:57 0,3 -0,1 9,7 Zuiden 16,1 1016,1 97 -
05:02 0,3 -0,1 9,7 Zuiden 14,5 1016,1 97 -
05:07 0,3 -0,1 6,4 ZZO 14,5 1016,1 97 -
05:12 0,3 -0,1 13,0 ZZW 17,7 1016,1 97 -
05:17 0,3 -0,1 7,9 ZZO 12,9 1016,5 97 -
05:22 0,3 -0,1 7,9 ZZW 17,7 1016,1 97 -
05:27 0,3 -0,1 7,9 ZZW 16,1 1016,1 97 -
05:32 0,2 -0,2 17,7 Zuiden 24,1 1016,1 97 -
05:37 0,3 -0,1 7,9 Zuiden 24,1 1016,1 97 -
05:42 0,2 -0,2 9,7 Zuiden 19,3 1016,1 97 -
05:47 0,2 -0,2 7,9 Zuiden 16,1 1016,1 97 -
05:52 0,3 -0,1 7,9 ZZW 14,5 1016,1 97 -
05:57 0,3 -0,1 7,9 Zuiden 9,7 1016,1 97 -
06:02 0,3 -0,1 3,2 Zuiden 16,1 1016,1 97 -
06:07 0,3 -0,1 6,4 ZZO 9,7 1016,1 97 -
06:12 0,3 -0,1 9,7 Zuiden 22,5 1016,1 97 -
06:17 0,2 -0,2 9,7 ZZW 22,5 1016,1 97 -
06:22 0,2 -0,2 13,0 ZZW 19,3 1016,1 97 -
06:27 0,2 -0,2 9,7 Zuiden 19,3 1016,1 97 -
06:32 0,3 -0,1 6,4 ZZW 17,7 1016,1 97 -
06:37 0,3 -0,1 3,2 ZZO 16,1 1016,1 97 -
06:42 0,3 -0,1 6,4 ZZW 22,5 1016,1 97 -
06:47 0,3 -0,1 9,7 Zuiden 14,5 1016,1 97 -
06:52 0,3 -0,1 14,3 Zuiden 16,1 1015,8 97 -
06:57 0,4 0,0 3,2 Zuiden 9,7 1015,8 97 -
07:02 0,4 0,0 16,3 ZO 16,1 1015,5 97 -
07:07 0,4 0,0 14,3 Zuiden 14,5 1015,5 97 -
07:12 0,4 0,0 9,7 Zuiden 12,9 1015,5 97 -
07:17 0,3 -0,1 3,2 Zuiden 14,5 1015,5 97 -
07:22 0,3 -0,1 6,4 Zuiden 17,7 1015,5 97 -
07:27 0,3 -0,1 11,1 Zuiden 17,7 1015,5 97 -
07:32 0,3 -0,1 13,0 Zuiden 19,3 1015,5 97 -
07:37 0,3 -0,1 16,3 Zuiden 20,9 1015,5 97 -
07:42 0,3 0,0 9,7 Zuiden 17,7 1015,8 98 -
07:47 0,4 0,1 9,7 ZZW 12,9 1015,8 98 -
Dagelijkse Samenvatting Zondag 26 januari 2020
Tijd Temp. ( °C ) Dew pt. ( °C ) Wind ( km/h ) van Windvlaag ( km/h ) Luchtdruk ( hPa ) Humid.( % ) Rainrate ( cm )
Hoog0,9 0,1 17,7 Zuiden ( 503/768 ) 24,1 1018,8 98 -
Gemiddeld0,4 -0,2 8,2 Zuiden #60/94 13,9 1017,0 96 -
Laag-0,4 -1,0 1,4   4,8 1015,5 94 -
Dagelijkse Tabular details for Zondag 26 januari 2020
Tijd Temp. ( °C ) Dew pt. ( °C ) Wind ( km/h ) van Windvlaag ( km/h ) Luchtdruk ( hPa ) Humid.( % ) Rainrate ( cm )
00:02 0,9 0,0 4,7 Zuiden 9,7 1018,8 94 -
00:07 0,9 0,0 4,7 Zuiden 11,3 1018,8 94 -
00:12 0,9 0,0 3,2 Zuiden 8,0 1018,5 94 -
00:17 0,9 0,0 11,1 Zuiden 11,3 1018,5 94 -
00:22 0,9 0,0 4,7 ZZW 6,4 1018,5 94 -
00:27 0,9 0,0 3,2 Zuiden 8,0 1018,5 94 -
00:32 0,9 0,0 9,7 Zuiden 14,5 1018,5 94 -
00:37 0,9 0,0 6,4 Zuiden 12,9 1018,2 94 -
00:42 0,9 0,0 6,4 ZZW 19,3 1018,2 94 -
00:47 0,9 0,0 13,0 Zuiden 12,9 1018,2 94 -
00:52 0,8 -0,1 7,9 Zuiden 9,7 1018,2 94 -
00:57 0,8 -0,1 4,7 Zuiden 8,0 1018,2 94 -
01:02 0,8 -0,1 4,7 Zuiden 8,0 1018,2 94 -
01:07 0,8 -0,1 6,4 ZZW 9,7 1018,2 94 -
01:12 0,8 0,1 9,7 Zuiden 16,1 1018,2 95 -
01:17 0,8 0,1 9,7 Zuiden 9,7 1018,2 95 -
01:22 0,8 0,1 4,7 ZZW 9,7 1017,8 95 -
01:27 0,8 0,1 3,2 ZZW 6,4 1017,8 95 -
01:32 0,8 0,1 3,2 Zuiden 6,4 1017,8 95 -
01:37 0,8 0,1 4,7 Zuiden 4,8 1017,8 95 -
01:42 0,7 0,0 6,4 Zuiden 6,4 1017,8 95 -
01:47 0,6 -0,1 3,2 Zuiden 4,8 1017,8 95 -
01:52 0,6 -0,1 1,4 ZZO 6,4 1017,8 95 -
01:57 0,7 0,0 6,4 Zuiden 9,7 1017,8 95 -
02:02 0,7 0,0 7,9 ZZW 11,3 1017,8 95 -
02:07 0,7 0,0 6,4 Zuiden 12,9 1017,8 95 -
02:12 0,7 0,0 7,9 Zuiden 11,3 1017,8 95 -
02:17 0,8 0,1 7,9 Zuiden 11,3 1017,5 95 -
02:22 0,8 0,1 7,9 ZZW 11,3 1017,5 95 -
02:27 0,8 0,1 9,7 Zuiden 14,5 1017,5 95 -
02:32 0,7 0,0 6,4 Zuiden 9,7 1017,5 95 -
02:37 0,6 -0,1 7,9 Zuiden 9,7 1017,5 95 -
02:42 0,3 -0,4 7,9 ZZW 9,7 1017,5 95 -
02:47 0,2 -0,5 7,9 Zuiden 12,9 1017,5 95 -
02:52 0,0 -0,7 6,4 ZZW 9,7 1017,5 95 -
02:57 -0,1 -0,8 6,4 Zuiden 9,7 1017,5 95 -
03:02 -0,2 -0,9 6,4 Zuiden 9,7 1017,5 95 -
03:07 -0,2 -0,9 4,7 ZZW 9,7 1017,5 95 -
03:12 -0,2 -0,9 4,7 ZZO 6,4 1017,5 95 -
03:17 -0,4 -1,0 9,7 Zuiden 11,3 1017,5 96 -
03:22 -0,3 -0,9 7,9 Zuiden 16,1 1017,2 96 -
03:27 -0,3 -0,9 11,1 Zuiden 16,1 1017,2 96 -
03:32 -0,3 -0,9 7,9 ZZW 19,3 1017,2 96 -
03:37 -0,3 -0,9 9,7 ZZO 16,1 1017,2 96 -
03:42 -0,3 -0,9 9,7 Zuiden 16,1 1017,2 96 -
03:47 -0,2 -0,8 6,4 Zuiden 16,1 1017,2 96 -
03:52 -0,2 -0,8 11,1 ZZO 19,3 1017,2 96 -
03:57 -0,2 -0,8 7,9 ZZW 14,5 1017,2 96 -
04:02 -0,2 -0,6 13,0 ZZW 16,1 1016,8 97 -
04:07 -0,2 -0,6 11,1 ZZW 14,5 1016,8 97 -
04:12 -0,1 -0,5 7,9 Zuiden 16,1 1016,8 97 -
04:17 -0,1 -0,5 7,9 ZZW 20,9 1016,8 97 -
04:22 0,0 -0,4 17,7 Zuiden 24,1 1016,8 97 -
04:27 0,1 -0,3 13,0 Zuiden 17,7 1016,5 97 -
04:32 0,1 -0,3 7,9 ZZO 19,3 1016,5 97 -
04:37 0,1 -0,3 13,0 Zuiden 14,5 1016,5 97 -
04:42 0,2 -0,2 4,7 Zuiden 17,7 1016,5 97 -
04:47 0,2 -0,2 7,9 Zuiden 14,5 1016,5 97 -
04:52 0,2 -0,2 6,4 Zuiden 11,3 1016,5 97 -
04:57 0,3 -0,1 9,7 Zuiden 16,1 1016,1 97 -
05:02 0,3 -0,1 9,7 Zuiden 14,5 1016,1 97 -
05:07 0,3 -0,1 6,4 ZZO 14,5 1016,1 97 -
05:12 0,3 -0,1 13,0 ZZW 17,7 1016,1 97 -
05:17 0,3 -0,1 7,9 ZZO 12,9 1016,5 97 -
05:22 0,3 -0,1 7,9 ZZW 17,7 1016,1 97 -
05:27 0,3 -0,1 7,9 ZZW 16,1 1016,1 97 -
05:32 0,2 -0,2 17,7 Zuiden 24,1 1016,1 97 -
05:37 0,3 -0,1 7,9 Zuiden 24,1 1016,1 97 -
05:42 0,2 -0,2 9,7 Zuiden 19,3 1016,1 97 -
05:47 0,2 -0,2 7,9 Zuiden 16,1 1016,1 97 -
05:52 0,3 -0,1 7,9 ZZW 14,5 1016,1 97 -
05:57 0,3 -0,1 7,9 Zuiden 9,7 1016,1 97 -
06:02 0,3 -0,1 3,2 Zuiden 16,1 1016,1 97 -
06:07 0,3 -0,1 6,4 ZZO 9,7 1016,1 97 -
06:12 0,3 -0,1 9,7 Zuiden 22,5 1016,1 97 -
06:17 0,2 -0,2 9,7 ZZW 22,5 1016,1 97 -
06:22 0,2 -0,2 13,0 ZZW 19,3 1016,1 97 -
06:27 0,2 -0,2 9,7 Zuiden 19,3 1016,1 97 -
06:32 0,3 -0,1 6,4 ZZW 17,7 1016,1 97 -
06:37 0,3 -0,1 3,2 ZZO 16,1 1016,1 97 -
06:42 0,3 -0,1 6,4 ZZW 22,5 1016,1 97 -
06:47 0,3 -0,1 9,7 Zuiden 14,5 1016,1 97 -
06:52 0,3 -0,1 14,3 Zuiden 16,1 1015,8 97 -
06:57 0,4 0,0 3,2 Zuiden 9,7 1015,8 97 -
07:02 0,4 0,0 16,3 ZO 16,1 1015,5 97 -
07:07 0,4 0,0 14,3 Zuiden 14,5 1015,5 97 -
07:12 0,4 0,0 9,7 Zuiden 12,9 1015,5 97 -
07:17 0,3 -0,1 3,2 Zuiden 14,5 1015,5 97 -
07:22 0,3 -0,1 6,4 Zuiden 17,7 1015,5 97 -
07:27 0,3 -0,1 11,1 Zuiden 17,7 1015,5 97 -
07:32 0,3 -0,1 13,0 Zuiden 19,3 1015,5 97 -
07:37 0,3 -0,1 16,3 Zuiden 20,9 1015,5 97 -
07:42 0,3 0,0 9,7 Zuiden 17,7 1015,8 98 -
07:47 0,4 0,1 9,7 ZZW 12,9 1015,8 98 -

Download your copy of this data-set  here

Our weather-data as stored at Weather Underground. Script ontwikkeld door Jim McMurry. Aangepast voor de template door Leuven-Template.eu

Apparatuur in gebruik:

Weerstation
Davis VP2

Weerprogramma
Meteobridge

Weercomputer
TP-link TL-MR3020

Webleverancier
Versio

Davis VP2

Meteobridge

TP-link TL-MR3020

Versio